createdAt,value
2022-10-30T00:02:03.954Z,13.05
2022-10-30T00:05:03.292Z,13.73
2022-10-30T00:20:55.042Z,10.88
2022-10-30T00:27:17.242Z,12.20
2022-10-30T00:34:57.278Z,12.85
2022-10-30T00:37:48.971Z,12.82
2022-10-30T00:41:20.582Z,13.77
2022-10-30T01:45:20.059Z,24.30
2022-10-30T01:48:01.375Z,29.13
2022-10-30T01:50:54.895Z,19.88
2022-10-30T01:53:48.792Z,16.90
2022-10-30T01:56:30.507Z,17.17
2022-10-30T01:59:08.264Z,17.70
2022-10-30T02:01:37.887Z,18.65
2022-10-30T02:04:06.490Z,22.42
2022-10-30T02:06:40.796Z,23.73
2022-10-30T02:09:10.927Z,27.98
2022-10-30T02:11:57.957Z,31.27
2022-10-30T02:14:40.255Z,29.40
2022-10-30T02:17:15.195Z,22.25
2022-10-30T02:19:53.696Z,15.82
2022-10-30T02:22:27.107Z,16.90
2022-10-30T02:24:54.670Z,20.52
2022-10-30T02:27:27.175Z,22.52
2022-10-30T02:29:55.259Z,19.42
2022-10-30T02:32:22.500Z,23.23
2022-10-30T02:34:50.488Z,24.95
2022-10-30T02:37:23.255Z,24.77
2022-10-30T02:39:53.702Z,24.25
2022-10-30T02:42:24.189Z,18.15
2022-10-30T02:44:53.475Z,17.77
2022-10-30T02:47:21.486Z,24.17
2022-10-30T02:49:49.120Z,24.00
2022-10-30T02:52:21.991Z,25.33
2022-10-30T02:54:51.370Z,27.13
2022-10-30T02:57:20.753Z,28.60
2022-10-30T02:59:48.116Z,25.70
2022-10-30T03:02:18.302Z,21.33
2022-10-30T03:04:48.389Z,21.73
2022-10-30T03:09:43.241Z,18.23
2022-10-30T03:12:15.132Z,18.90
2022-10-30T03:14:49.772Z,19.75
2022-10-30T03:17:18.164Z,20.23
2022-10-30T03:19:46.501Z,22.98
2022-10-30T03:22:14.769Z,20.40
2022-10-30T03:24:42.209Z,19.25
2022-10-30T03:27:09.608Z,17.23
2022-10-30T03:29:38.504Z,17.70
2022-10-30T03:32:10.848Z,17.33
2022-10-30T03:34:46.192Z,16.98
2022-10-30T03:37:15.193Z,15.85
2022-10-30T03:39:47.030Z,15.02
2022-10-30T03:42:15.901Z,15.25
2022-10-30T03:44:43.557Z,15.35
2022-10-30T03:47:13.645Z,16.15
2022-10-30T03:49:44.533Z,15.35
2022-10-30T03:52:23.938Z,16.42
2022-10-30T03:54:52.560Z,16.10
2022-10-30T03:57:20.680Z,17.58
2022-10-30T04:00:14.564Z,16.85
2022-10-30T04:02:50.590Z,15.90
2022-10-30T04:05:20.719Z,16.67
2022-10-30T04:07:49.394Z,17.88
2022-10-30T04:10:23.794Z,15.27
2022-10-30T04:12:58.453Z,15.27
2022-10-30T04:15:26.517Z,15.07
2022-10-30T04:18:02.927Z,16.50
2022-10-30T04:20:32.121Z,15.18
2022-10-30T04:23:02.216Z,15.20
2022-10-30T04:25:30.970Z,16.20
2022-10-30T04:28:00.982Z,15.65
2022-10-30T04:30:31.377Z,15.60
2022-10-30T04:32:59.301Z,15.80
2022-10-30T04:35:33.849Z,15.80
2022-10-30T04:38:11.649Z,15.05
2022-10-30T04:40:43.591Z,15.50
2022-10-30T04:43:13.088Z,15.93
2022-10-30T04:45:41.321Z,15.75
2022-10-30T04:48:15.929Z,17.27
2022-10-30T04:50:44.633Z,16.92
2022-10-30T04:53:23.427Z,18.52
2022-10-30T04:55:57.323Z,18.00
2022-10-30T04:58:28.776Z,18.65
2022-10-30T05:01:07.509Z,17.40
2022-10-30T05:03:39.538Z,18.50
2022-10-30T05:06:31.506Z,18.45
2022-10-30T05:09:00.170Z,18.48
2022-10-30T05:11:33.833Z,19.27
2022-10-30T05:14:01.793Z,17.45
2022-10-30T05:16:29.278Z,19.05
2022-10-30T05:19:01.466Z,18.50
2022-10-30T05:21:29.404Z,18.35
2022-10-30T05:23:59.166Z,17.88
2022-10-30T05:26:27.618Z,17.33
2022-10-30T05:28:55.165Z,16.60
2022-10-30T05:31:23.166Z,17.60
2022-10-30T05:34:07.506Z,16.45
2022-10-30T05:36:37.755Z,16.23
2022-10-30T05:39:06.729Z,16.55
2022-10-30T05:41:44.894Z,16.70
2022-10-30T05:44:13.409Z,18.02
2022-10-30T05:46:45.155Z,19.33
2022-10-30T05:49:27.581Z,17.08
2022-10-30T05:51:56.434Z,17.75
2022-10-30T05:54:23.517Z,18.13
2022-10-30T05:57:04.525Z,17.92
2022-10-30T05:59:35.694Z,17.10
2022-10-30T06:02:07.256Z,17.65
2022-10-30T06:04:37.745Z,18.80
2022-10-30T06:07:17.000Z,18.98
2022-10-30T06:09:45.639Z,18.00
2022-10-30T06:12:38.953Z,17.35
2022-10-30T06:15:30.989Z,16.20
2022-10-30T06:18:20.058Z,15.98
2022-10-30T06:21:01.883Z,16.15
2022-10-30T06:23:48.875Z,16.05
2022-10-30T06:26:42.460Z,16.85
2022-10-30T06:29:21.450Z,15.70
2022-10-30T06:31:49.131Z,16.08
2022-10-30T06:34:19.617Z,15.88
2022-10-30T06:36:55.648Z,16.63
2022-10-30T06:39:29.804Z,16.13
2022-10-30T06:42:22.573Z,14.40
2022-10-30T06:45:21.321Z,15.77
2022-10-30T06:47:51.548Z,15.05
2022-10-30T06:50:24.359Z,15.45
2022-10-30T06:52:55.397Z,15.85
2022-10-30T06:55:27.271Z,19.45
2022-10-30T06:58:24.075Z,13.68
2022-10-30T07:01:06.888Z,14.10
2022-10-30T07:04:00.329Z,14.18
2022-10-30T07:06:27.422Z,14.13
2022-10-30T07:08:56.759Z,13.48
2022-10-30T07:11:24.306Z,14.32
2022-10-30T07:14:20.288Z,14.27
2022-10-30T07:16:55.258Z,13.10
2022-10-30T07:19:26.199Z,12.82
2022-10-30T07:22:02.840Z,12.68
2022-10-30T07:24:31.170Z,13.27
2022-10-30T07:27:17.218Z,12.60
2022-10-30T07:30:11.074Z,15.50
2022-10-30T07:33:06.990Z,12.70
2022-10-30T07:36:00.169Z,13.32
2022-10-30T07:38:51.180Z,12.10
2022-10-30T07:41:37.846Z,21.35
2022-10-30T07:44:26.600Z,12.07
2022-10-30T08:24:07.807Z,11.32
2022-10-30T09:01:44.310Z,15.15
2022-10-30T09:07:07.647Z,8.50
2022-10-30T09:09:56.162Z,9.60
2022-10-30T09:12:24.980Z,8.77
2022-10-30T09:14:52.376Z,11.05
2022-10-30T09:17:19.144Z,9.20
2022-10-30T09:22:21.792Z,8.38
2022-10-30T09:24:49.822Z,10.02
2022-10-30T09:27:46.105Z,10.63
2022-10-30T09:30:13.982Z,9.60
2022-10-30T09:32:55.026Z,10.38
2022-10-30T09:35:26.301Z,9.38
2022-10-30T09:37:53.272Z,10.25
2022-10-30T09:40:23.780Z,9.55
2022-10-30T09:42:52.108Z,9.02
2022-10-30T09:46:02.844Z,7.30
2022-10-30T09:48:49.265Z,13.07
2022-10-30T09:51:57.747Z,10.38
2022-10-30T09:54:36.936Z,22.08
2022-10-30T09:57:24.439Z,39.70
2022-10-30T10:00:03.646Z,12.05
2022-10-30T10:02:34.288Z,12.32
2022-10-30T10:05:11.980Z,12.18
2022-10-30T10:08:17.280Z,7.88
2022-10-30T10:11:14.519Z,7.57
2022-10-30T10:14:00.033Z,14.15
2022-10-30T10:16:33.650Z,7.55
2022-10-30T10:19:21.271Z,8.13
2022-10-30T10:21:57.925Z,8.15
2022-10-30T10:24:44.419Z,8.70
2022-10-30T10:27:23.297Z,8.30
2022-10-30T10:30:12.286Z,9.00
2022-10-30T10:32:47.784Z,8.27
2022-10-30T10:38:22.312Z,8.55
2022-10-30T10:40:51.655Z,7.47
2022-10-30T10:43:29.093Z,8.23
2022-10-30T10:46:17.460Z,8.27
2022-10-30T10:48:53.098Z,8.70
2022-10-30T10:51:22.965Z,10.13
2022-10-30T10:53:58.734Z,12.05
2022-10-30T10:56:34.285Z,8.57
2022-10-30T10:59:27.024Z,7.88
2022-10-30T11:02:13.597Z,7.47
2022-10-30T11:04:43.499Z,11.48
2022-10-30T11:07:29.493Z,7.50
2022-10-30T11:09:57.638Z,8.27
2022-10-30T11:12:36.273Z,7.20
2022-10-30T11:15:27.379Z,8.82
2022-10-30T11:18:04.042Z,8.30
2022-10-30T11:20:56.791Z,8.18
2022-10-30T11:23:41.569Z,7.68
2022-10-30T11:26:17.663Z,7.40
2022-10-30T11:28:48.756Z,7.65
2022-10-30T11:31:24.298Z,6.63
2022-10-30T11:36:24.094Z,7.72
2022-10-30T11:38:52.067Z,7.65
2022-10-30T11:41:20.405Z,6.97
2022-10-30T11:43:49.191Z,8.95
2022-10-30T11:46:22.403Z,6.93
2022-10-30T11:48:54.860Z,7.88
2022-10-30T11:51:48.519Z,13.85
2022-10-30T11:54:21.170Z,12.05
2022-10-30T11:56:51.778Z,7.85
2022-10-30T11:59:21.913Z,28.67
2022-10-30T12:02:03.019Z,30.35
2022-10-30T12:04:32.840Z,29.80
2022-10-30T12:07:14.664Z,10.38
2022-10-30T12:09:43.765Z,20.92
2022-10-30T12:12:21.840Z,23.83
2022-10-30T12:14:48.942Z,27.60
2022-10-30T12:17:17.920Z,20.67
2022-10-30T12:19:54.070Z,8.25
2022-10-30T12:22:31.173Z,31.30
2022-10-30T12:25:02.516Z,17.13
2022-10-30T12:27:32.210Z,48.58
2022-10-30T12:30:09.746Z,43.67
2022-10-30T12:32:55.307Z,23.02
2022-10-30T12:35:36.377Z,14.98
2022-10-30T12:38:25.895Z,24.67
2022-10-30T12:41:14.714Z,10.10
2022-10-30T12:43:45.809Z,18.55
2022-10-30T12:46:27.688Z,9.93
2022-10-30T12:52:19.308Z,8.98
2022-10-30T12:55:13.574Z,14.50
2022-10-30T13:00:15.795Z,12.88
2022-10-30T13:02:48.254Z,10.77
2022-10-30T13:05:41.772Z,13.75
2022-10-30T13:08:33.435Z,10.65
2022-10-30T13:11:11.667Z,9.85
2022-10-30T13:13:46.902Z,11.85
2022-10-30T13:16:27.629Z,9.10
2022-10-30T13:19:01.754Z,23.08
2022-10-30T13:21:34.507Z,8.93
2022-10-30T13:24:28.891Z,7.85
2022-10-30T13:27:07.144Z,8.23
2022-10-30T13:29:41.291Z,7.40
2022-10-30T13:32:33.418Z,9.00
2022-10-30T13:35:20.148Z,7.72
2022-10-30T13:38:25.797Z,7.82
2022-10-30T13:41:13.581Z,7.90
2022-10-30T13:43:51.878Z,8.48
2022-10-30T13:46:33.537Z,8.27
2022-10-30T13:49:19.615Z,7.03
2022-10-30T13:52:06.517Z,8.73
2022-10-30T13:54:42.462Z,9.98
2022-10-30T13:57:18.953Z,7.63
2022-10-30T13:59:59.155Z,9.93
2022-10-30T14:02:32.971Z,8.52
2022-10-30T14:05:43.299Z,8.25
2022-10-30T14:08:26.103Z,8.07
2022-10-30T14:11:00.383Z,6.22
2022-10-30T14:14:15.543Z,8.40
2022-10-30T14:16:44.742Z,6.53
2022-10-30T14:19:13.285Z,6.95
2022-10-30T14:21:44.449Z,6.85
2022-10-30T14:24:29.486Z,7.18
2022-10-30T14:27:05.842Z,6.45
2022-10-30T14:29:38.254Z,6.72
2022-10-30T14:32:14.477Z,7.95
2022-10-30T14:34:50.593Z,6.97
2022-10-30T14:37:37.712Z,7.25
2022-10-30T14:40:41.634Z,6.70
2022-10-30T14:43:24.958Z,7.10
2022-10-30T14:46:00.285Z,7.15
2022-10-30T14:48:49.680Z,6.72
2022-10-30T14:51:38.067Z,6.72
2022-10-30T14:56:52.577Z,6.15
2022-10-30T14:59:19.452Z,6.78
2022-10-30T15:01:49.891Z,6.72
2022-10-30T15:04:29.648Z,6.07
2022-10-30T15:07:08.452Z,6.53
2022-10-30T15:09:41.304Z,7.07
2022-10-30T15:12:22.371Z,7.60
2022-10-30T15:15:03.875Z,6.93
2022-10-30T15:17:30.820Z,6.13
2022-10-30T15:20:01.092Z,6.65
2022-10-30T15:22:30.027Z,6.32
2022-10-30T15:24:58.308Z,6.47
2022-10-30T15:27:26.325Z,6.53
2022-10-30T15:29:56.719Z,5.80
2022-10-30T15:32:24.675Z,5.90
2022-10-30T15:35:03.066Z,5.50
2022-10-30T15:37:31.203Z,6.90
2022-10-30T15:40:25.392Z,6.28
2022-10-30T15:45:23.387Z,6.53
2022-10-30T15:48:05.468Z,6.93
2022-10-30T15:50:34.324Z,7.13
2022-10-30T15:53:01.780Z,7.65
2022-10-30T15:55:31.526Z,8.30
2022-10-30T15:58:13.129Z,8.52
2022-10-30T16:00:40.503Z,7.43
2022-10-30T16:03:16.757Z,8.38
2022-10-30T16:05:43.870Z,8.43
2022-10-30T16:08:24.505Z,8.27
2022-10-30T16:10:55.863Z,9.10
2022-10-30T16:13:28.004Z,7.75
2022-10-30T16:15:55.291Z,6.85
2022-10-30T16:18:35.721Z,7.60
2022-10-30T16:21:06.542Z,9.60
2022-10-30T16:23:46.966Z,12.15
2022-10-30T16:26:37.731Z,11.02
2022-10-30T16:29:13.872Z,11.13
2022-10-30T16:31:43.356Z,13.38
2022-10-30T16:34:21.933Z,11.55
2022-10-30T16:36:50.115Z,12.13
2022-10-30T16:39:19.008Z,10.50
2022-10-30T16:41:46.097Z,10.23
2022-10-30T16:44:12.887Z,9.57
2022-10-30T16:46:58.147Z,11.75
2022-10-30T16:49:29.132Z,10.85
2022-10-30T16:52:02.372Z,11.55
2022-10-30T16:54:32.821Z,11.45
2022-10-30T16:57:02.469Z,11.98
2022-10-30T16:59:38.349Z,9.57
2022-10-30T17:02:17.187Z,9.55
2022-10-30T17:04:47.444Z,10.15
2022-10-30T17:07:20.488Z,9.43
2022-10-30T17:09:49.267Z,7.97
2022-10-30T17:12:19.316Z,9.75
2022-10-30T17:17:33.118Z,9.60
2022-10-30T17:20:03.358Z,9.18
2022-10-30T17:22:31.068Z,8.43
2022-10-30T17:24:59.083Z,7.43
2022-10-30T17:27:25.965Z,9.45
2022-10-30T17:29:53.608Z,9.20
2022-10-30T17:32:25.653Z,10.75
2022-10-30T17:35:16.978Z,8.32
2022-10-30T17:37:43.924Z,8.32
2022-10-30T17:40:12.611Z,8.65
2022-10-30T17:42:40.218Z,8.20
2022-10-30T17:45:10.773Z,8.20
2022-10-30T17:47:38.018Z,7.80
2022-10-30T17:50:05.872Z,7.22
2022-10-30T17:52:33.340Z,8.55
2022-10-30T17:55:01.959Z,7.78
2022-10-30T17:57:29.258Z,7.68
2022-10-30T17:59:56.096Z,7.90
2022-10-30T18:02:23.594Z,6.90
2022-10-30T18:04:52.499Z,6.55
2022-10-30T18:07:19.521Z,6.70
2022-10-30T18:09:46.377Z,6.20
2022-10-30T18:12:15.745Z,6.93
2022-10-30T18:14:46.256Z,6.25
2022-10-30T18:17:13.724Z,6.15
2022-10-30T18:19:40.548Z,7.80
2022-10-30T18:22:09.285Z,6.75
2022-10-30T18:24:36.577Z,7.07
2022-10-30T18:27:03.485Z,7.43
2022-10-30T18:29:30.330Z,6.57
2022-10-30T18:31:57.214Z,7.50
2022-10-30T18:34:24.038Z,7.30
2022-10-30T18:36:50.918Z,7.18
2022-10-30T18:39:17.859Z,9.98
2022-10-30T18:41:46.429Z,7.55
2022-10-30T18:44:17.877Z,8.38
2022-10-30T18:46:45.909Z,7.45
2022-10-30T18:49:12.957Z,9.38
2022-10-30T18:51:40.074Z,8.10
2022-10-30T18:54:16.733Z,7.68
2022-10-30T18:56:43.828Z,8.38
2022-10-30T18:59:10.974Z,7.93
2022-10-30T19:01:38.610Z,7.72
2022-10-30T19:04:11.706Z,8.45
2022-10-30T19:06:38.960Z,7.03
2022-10-30T19:09:06.379Z,7.07
2022-10-30T19:11:33.869Z,6.63
2022-10-30T19:14:01.066Z,7.75
2022-10-30T19:16:28.329Z,7.50
2022-10-30T19:18:55.554Z,7.53
2022-10-30T19:21:25.376Z,8.70
2022-10-30T19:23:54.504Z,8.93
2022-10-30T19:26:21.687Z,7.65
2022-10-30T19:28:48.711Z,6.53
2022-10-30T19:31:18.162Z,9.38
2022-10-30T19:33:45.983Z,9.68
2022-10-30T19:36:36.566Z,11.07
2022-10-30T19:39:16.782Z,10.95
2022-10-30T19:41:44.174Z,9.75
2022-10-30T19:44:11.222Z,10.35
2022-10-30T19:46:38.254Z,10.73
2022-10-30T19:49:22.428Z,9.43
2022-10-30T19:51:49.369Z,10.85
2022-10-30T19:54:16.174Z,10.50
2022-10-30T19:56:44.003Z,12.07
2022-10-30T19:59:14.294Z,10.35
2022-10-30T20:01:41.878Z,9.48
2022-10-30T20:04:09.503Z,9.40
2022-10-30T20:06:46.417Z,9.75
2022-10-30T20:09:23.351Z,8.88
2022-10-30T20:11:54.296Z,8.85
2022-10-30T20:14:22.654Z,8.52
2022-10-30T20:16:50.390Z,8.52
2022-10-30T20:19:28.550Z,7.57
2022-10-30T20:22:05.705Z,8.52
2022-10-30T20:24:33.193Z,8.68
2022-10-30T20:27:00.749Z,8.80
2022-10-30T20:29:28.381Z,9.90
2022-10-30T20:31:56.173Z,8.77
2022-10-30T20:34:25.138Z,10.25
2022-10-30T20:36:52.385Z,8.52
2022-10-30T20:39:22.269Z,9.57
2022-10-30T20:41:52.137Z,9.55
2022-10-30T20:44:19.585Z,9.23
2022-10-30T20:46:48.270Z,9.23
2022-10-30T20:49:19.550Z,10.25
2022-10-30T20:51:48.253Z,10.85
2022-10-30T20:54:16.183Z,11.20
2022-10-30T20:56:43.505Z,11.10
2022-10-30T20:59:20.080Z,10.05
2022-10-30T21:01:49.979Z,9.95
2022-10-30T21:06:47.605Z,9.05
2022-10-30T21:09:20.882Z,8.15
2022-10-30T21:11:55.399Z,8.73
2022-10-30T21:14:30.389Z,8.07
2022-10-30T21:17:05.149Z,8.70
2022-10-30T21:19:35.063Z,8.15
2022-10-30T21:22:07.603Z,7.78
2022-10-30T21:24:45.172Z,7.03
2022-10-30T21:27:14.275Z,8.07
2022-10-30T21:29:46.288Z,7.85
2022-10-30T21:32:14.959Z,9.43
2022-10-30T21:34:49.325Z,15.30
2022-10-30T21:37:25.894Z,9.20
2022-10-30T21:39:56.390Z,7.32
2022-10-30T21:45:06.477Z,7.47
2022-10-30T21:47:36.352Z,6.95
2022-10-30T21:50:07.622Z,7.53
2022-10-30T21:52:40.018Z,7.22
2022-10-30T21:55:10.258Z,7.57
2022-10-30T21:57:37.443Z,7.20
2022-10-30T22:00:06.163Z,7.05
2022-10-30T22:02:40.496Z,6.85
2022-10-30T22:05:10.659Z,6.60
2022-10-30T22:10:16.097Z,6.03
2022-10-30T22:12:49.795Z,7.63
2022-10-30T22:19:48.536Z,7.30
2022-10-30T22:22:19.958Z,8.85
2022-10-30T22:24:48.845Z,8.55
2022-10-30T22:27:26.960Z,8.48
2022-10-30T22:29:57.262Z,7.43
2022-10-30T22:32:37.395Z,7.05
2022-10-30T22:35:11.286Z,8.68
2022-10-30T22:37:38.999Z,7.53
2022-10-30T22:40:12.104Z,8.77
2022-10-30T22:42:42.694Z,9.60
2022-10-30T22:45:10.175Z,9.02
2022-10-30T22:47:39.645Z,8.55
2022-10-30T22:50:15.541Z,9.90
2022-10-30T22:52:42.661Z,8.50
2022-10-30T22:55:16.239Z,8.50
2022-10-30T22:57:43.620Z,7.60
2022-10-30T23:00:14.056Z,8.30
2022-10-30T23:02:44.008Z,8.18
2022-10-30T23:05:11.499Z,9.10
2022-10-30T23:07:39.275Z,8.05
2022-10-30T23:10:07.371Z,7.70
2022-10-30T23:12:35.835Z,9.65
2022-10-30T23:15:05.372Z,9.20
2022-10-30T23:17:32.971Z,7.90
2022-10-30T23:20:00.084Z,7.47
2022-10-30T23:22:30.456Z,7.45
2022-10-30T23:24:57.983Z,9.30
2022-10-30T23:27:25.253Z,8.40
2022-10-30T23:29:52.353Z,7.43
2022-10-30T23:32:19.505Z,8.10
2022-10-30T23:34:46.674Z,7.43
2022-10-30T23:37:13.789Z,7.65
2022-10-30T23:39:43.121Z,6.68
2022-10-30T23:42:12.989Z,6.93
2022-10-30T23:44:40.134Z,7.40
2022-10-30T23:47:09.255Z,6.65
2022-10-30T23:49:36.409Z,6.40
2022-10-30T23:52:03.564Z,6.85
2022-10-30T23:54:30.714Z,6.45
2022-10-30T23:56:59.828Z,5.95
2022-10-30T23:59:26.989Z,6.38
